Terminal Aerodrome Forecast
Issued by NWS Jackson, MS

Home | Current Version | Previous Version | Text Only | Print | Product List | Glossary On
Versions: 1 2 3 4 5 6 7 8 9 10 11 12 13 14 15 16 17 18
000
FTUS44 KJAN 282140 AAB
TAFGWO
TAF AMD
KGWO 282140Z 2822/2918 22007KT P6SM SCT008 BKN015 BKN024
     FM290900 20004KT P6SM VCSH OVC012
     FM291600 24007KT P6SM VCSH SCT025 BKN040=

USA.gov is the U.S. government's official web portal to all federal, state and local government web resources and services.